Time;durP1;ratioP1;P1;durP2;ratioP2;P2;SDS_P1;SDS_P2;PMS_P1;PMS_P2;Temp;Humidity;BMP_temperature;BMP_pressure;BME280_temperature;BME280_humidity;BME280_pressure;Samples;Min_cycle;Max_cycle;Signal;HPM_P1;HPM_P2
2021/08/25 00:02:15;;;;;;;15.10;13.80;;;15.20;99.90;;;;;;4978647;28;20447;-87
2021/08/25 00:04:44;;;;;;;15.70;14.30;;;15.30;99.90;;;;;;4977699;28;20459;-88
2021/08/25 00:07:11;;;;;;;15.00;13.70;;;15.30;99.90;;;;;;4977227;28;20443;-88
2021/08/25 00:09:40;;;;;;;14.97;13.57;;;15.20;99.90;;;;;;4976771;28;20463;-88
2021/08/25 00:12:08;;;;;;;14.80;13.40;;;15.20;99.90;;;;;;4977190;28;20459;-88
2021/08/25 00:14:36;;;;;;;15.07;13.67;;;15.20;99.90;;;;;;4977249;28;20455;-88
2021/08/25 00:17:03;;;;;;;15.70;14.33;;;15.10;99.90;;;;;;4977248;28;20443;-89
2021/08/25 00:19:30;;;;;;;13.97;12.63;;;15.20;99.90;;;;;;4977071;28;20506;-88
2021/08/25 00:21:58;;;;;;;15.27;13.90;;;15.10;99.90;;;;;;4978517;28;20450;-88
2021/08/25 00:24:25;;;;;;;15.97;14.57;;;15.10;99.90;;;;;;4976833;28;20945;-88
2021/08/25 00:26:52;;;;;;;13.60;12.30;;;15.10;99.90;;;;;;4976662;28;20443;-88
2021/08/25 00:29:19;;;;;;;15.43;14.13;;;15.10;99.90;;;;;;4976250;28;20476;-88
2021/08/25 00:31:46;;;;;;;15.20;13.70;;;15.00;99.90;;;;;;4976554;28;20933;-88
2021/08/25 00:34:12;;;;;;;15.53;14.20;;;15.00;99.90;;;;;;4976479;28;20947;-89
2021/08/25 00:36:39;;;;;;;15.40;14.00;;;14.90;99.90;;;;;;4976297;28;20450;-88
2021/08/25 00:39:07;;;;;;;15.87;14.37;;;14.80;99.90;;;;;;4976155;28;20486;-88
2021/08/25 00:41:34;;;;;;;15.63;14.23;;;14.70;99.90;;;;;;4981606;28;20449;-87
2021/08/25 00:44:00;;;;;;;17.00;15.50;;;14.70;99.90;;;;;;5000014;28;20456;-88
2021/08/25 00:46:28;;;;;;;17.00;15.20;;;14.70;99.90;;;;;;4989742;28;20843;-89
2021/08/25 00:48:55;;;;;;;15.43;13.93;;;14.60;99.90;;;;;;4976033;28;20484;-88
2021/08/25 00:51:23;;;;;;;15.53;13.97;;;14.50;99.90;;;;;;4975908;28;20455;-88
2021/08/25 00:53:50;;;;;;;17.33;15.63;;;14.50;99.90;;;;;;4976012;28;20524;-88
2021/08/25 00:56:19;;;;;;;15.90;14.53;;;14.50;99.90;;;;;;4976023;28;20448;-88
2021/08/25 00:58:46;;;;;;;14.77;13.47;;;14.50;99.90;;;;;;4975597;28;20508;-89
2021/08/25 01:01:20;;;;;;;15.53;14.13;;;14.50;99.90;;;;;;4983519;28;20451;-88
2021/08/25 01:03:51;;;;;;;16.33;15.03;;;14.60;99.90;;;;;;4995487;28;20459;-88
2021/08/25 01:06:22;;;;;;;16.23;14.70;;;14.60;99.90;;;;;;4980697;28;20443;-88
2021/08/25 01:08:49;;;;;;;17.03;15.33;;;14.50;99.90;;;;;;4975950;28;20815;-88
2021/08/25 01:11:17;;;;;;;16.57;14.97;;;14.50;99.90;;;;;;4987851;28;20420;-87
2021/08/25 01:13:44;;;;;;;15.60;14.20;;;14.40;99.90;;;;;;5000774;28;20431;-87
2021/08/25 01:16:11;;;;;;;17.60;15.70;;;14.30;99.90;;;;;;5000139;28;20603;-86
2021/08/25 01:18:39;;;;;;;17.40;14.63;;;14.40;99.90;;;;;;4996488;28;20475;-89
2021/08/25 01:21:07;;;;;;;16.80;15.13;;;14.30;99.90;;;;;;4982005;28;20488;-88
2021/08/25 01:23:37;;;;;;;15.97;14.57;;;14.30;99.90;;;;;;4976890;28;20458;-88
2021/08/25 01:26:04;;;;;;;17.40;15.90;;;14.30;99.90;;;;;;4981700;28;20466;-88
2021/08/25 01:28:37;;;;;;;18.57;16.87;;;14.30;99.90;;;;;;4991343;28;20470;-88
2021/08/25 01:31:06;;;;;;;17.20;15.60;;;14.30;99.90;;;;;;4978313;28;20812;-88
2021/08/25 01:33:33;;;;;;;17.70;16.03;;;14.20;99.90;;;;;;4983231;28;20462;-88
2021/08/25 01:36:00;;;;;;;17.50;15.77;;;14.20;99.90;;;;;;4978495;28;20455;-87
2021/08/25 01:38:32;;;;;;;15.67;14.23;;;14.20;99.90;;;;;;4975399;28;20594;-88
2021/08/25 01:40:59;;;;;;;15.97;14.47;;;14.20;99.90;;;;;;4985378;28;20490;-87
2021/08/25 01:43:25;;;;;;;17.03;15.23;;;14.20;99.90;;;;;;4982211;28;20466;-88
2021/08/25 01:45:52;;;;;;;15.60;14.30;;;14.20;99.90;;;;;;4976335;28;20455;-88
2021/08/25 01:48:21;;;;;;;16.50;15.00;;;14.00;99.90;;;;;;4976950;28;20457;-87
2021/08/25 01:50:48;;;;;;;17.10;15.40;;;14.00;99.90;;;;;;4977497;28;20474;-88
2021/08/25 01:53:15;;;;;;;16.87;15.30;;;13.90;99.90;;;;;;4990900;28;20435;-85
2021/08/25 01:55:42;;;;;;;18.30;16.70;;;13.90;99.90;;;;;;4997624;28;20491;-88
2021/08/25 01:58:08;;;;;;;18.63;16.73;;;13.90;99.90;;;;;;4986581;28;20448;-86
2021/08/25 02:00:35;;;;;;;18.73;15.00;;;14.00;99.90;;;;;;4991521;28;20987;-87
2021/08/25 02:03:02;;;;;;;17.83;16.17;;;14.00;99.90;;;;;;4977494;28;20459;-88
2021/08/25 02:05:30;;;;;;;17.00;15.40;;;14.10;99.90;;;;;;4977175;28;20458;-87
2021/08/25 02:07:56;;;;;;;17.80;16.20;;;14.10;99.90;;;;;;4977698;28;20477;-87
2021/08/25 02:10:23;;;;;;;17.03;15.40;;;14.00;99.90;;;;;;4987123;28;20472;-88
2021/08/25 02:12:50;;;;;;;16.10;14.57;;;14.00;99.90;;;;;;4976351;28;20455;-88
2021/08/25 02:15:16;;;;;;;16.53;15.07;;;14.00;99.90;;;;;;4975028;28;20448;-87
2021/08/25 02:17:43;;;;;;;17.27;15.67;;;14.10;99.90;;;;;;4974959;28;20456;-88
2021/08/25 02:20:11;;;;;;;16.43;14.87;;;14.00;99.90;;;;;;4975077;28;20490;-87
2021/08/25 02:22:39;;;;;;;15.57;14.17;;;13.90;99.90;;;;;;4998922;28;20440;-87
2021/08/25 02:25:06;;;;;;;16.73;15.13;;;13.90;99.90;;;;;;4992892;28;20447;-87
2021/08/25 02:27:33;;;;;;;16.80;15.10;;;13.90;99.90;;;;;;4974579;28;20827;-88
2021/08/25 02:29:59;;;;;;;17.20;15.50;;;13.80;99.90;;;;;;4974213;28;20467;-88
2021/08/25 02:32:27;;;;;;;24.40;16.67;;;13.70;99.90;;;;;;4974421;28;20480;-88
2021/08/25 02:34:54;;;;;;;17.23;15.63;;;13.80;99.90;;;;;;4974382;28;20455;-87
2021/08/25 02:37:21;;;;;;;17.17;15.47;;;13.80;99.90;;;;;;4974373;28;20767;-88
2021/08/25 02:39:50;;;;;;;17.60;16.03;;;13.90;99.90;;;;;;4974872;28;20490;-88
2021/08/25 02:42:16;;;;;;;16.63;15.13;;;13.80;99.90;;;;;;4974196;28;20448;-87
2021/08/25 02:44:43;;;;;;;16.23;14.63;;;13.80;99.90;;;;;;4973979;28;20446;-87
2021/08/25 02:47:11;;;;;;;17.17;15.40;;;13.80;99.90;;;;;;4984611;28;20440;-86
2021/08/25 02:49:38;;;;;;;17.43;15.33;;;13.80;99.90;;;;;;4985589;28;20477;-88
2021/08/25 02:52:05;;;;;;;16.90;15.30;;;13.80;99.90;;;;;;4974988;28;20452;-88
2021/08/25 02:54:32;;;;;;;15.80;14.30;;;13.80;99.90;;;;;;4974369;28;20474;-88
2021/08/25 02:57:00;;;;;;;16.07;14.60;;;13.80;99.90;;;;;;4974368;28;20451;-88
2021/08/25 02:59:27;;;;;;;17.77;16.10;;;13.80;99.90;;;;;;4973764;28;20892;-87
2021/08/25 03:01:53;;;;;;;16.93;15.43;;;13.70;99.90;;;;;;4974547;28;20973;-88
2021/08/25 03:04:20;;;;;;;17.33;15.60;;;13.70;99.90;;;;;;4985878;28;20456;-88
2021/08/25 03:06:47;;;;;;;16.10;14.70;;;13.70;99.90;;;;;;4986793;28;20499;-87
2021/08/25 03:09:13;;;;;;;17.47;15.87;;;13.60;99.90;;;;;;4973785;28;20477;-87
2021/08/25 03:11:40;;;;;;;16.93;15.23;;;13.60;99.90;;;;;;4975370;28;20454;-88
2021/08/25 03:14:08;;;;;;;17.70;15.83;;;13.60;99.90;;;;;;4984415;28;20455;-86
2021/08/25 03:16:35;;;;;;;17.63;16.13;;;13.60;99.90;;;;;;4998422;28;20438;-88
2021/08/25 03:19:02;;;;;;;16.73;15.13;;;13.60;99.90;;;;;;4980083;28;20475;-88
2021/08/25 03:21:28;;;;;;;18.80;17.10;;;13.60;99.90;;;;;;4996190;28;20537;-86
2021/08/25 03:23:55;;;;;;;18.13;16.53;;;13.60;99.90;;;;;;4995048;28;20449;-87
2021/08/25 03:26:22;;;;;;;16.87;15.27;;;13.60;99.90;;;;;;4980408;28;20495;-87
2021/08/25 03:28:48;;;;;;;18.00;16.27;;;13.60;99.90;;;;;;4990549;22;20455;-88
2021/08/25 03:31:16;;;;;;;17.10;15.40;;;13.60;99.90;;;;;;4995372;28;20935;-88
2021/08/25 03:33:43;;;;;;;17.57;15.87;;;13.60;99.90;;;;;;4994346;28;20458;-88
2021/08/25 03:36:10;;;;;;;16.73;15.13;;;13.50;99.90;;;;;;4993860;28;20446;-88
2021/08/25 03:38:37;;;;;;;18.90;17.20;;;13.50;99.90;;;;;;4993613;28;20442;-88
2021/08/25 03:41:03;;;;;;;18.40;16.60;;;13.50;99.90;;;;;;4993659;28;20489;-88
2021/08/25 03:43:30;;;;;;;18.77;16.87;;;13.60;99.90;;;;;;4993748;28;20462;-88
2021/08/25 03:45:57;;;;;;;16.70;15.20;;;13.60;99.90;;;;;;4993253;28;20448;-88
2021/08/25 03:48:25;;;;;;;20.33;16.30;;;13.60;99.90;;;;;;4992975;28;20449;-88
2021/08/25 03:50:51;;;;;;;18.87;15.70;;;13.60;99.90;;;;;;4993430;28;20822;-88
2021/08/25 03:53:18;;;;;;;17.37;15.57;;;13.50;99.90;;;;;;4993281;28;21014;-88
2021/08/25 03:55:45;;;;;;;18.93;17.13;;;13.50;99.90;;;;;;4992907;28;20850;-88
2021/08/25 03:58:11;;;;;;;18.10;16.50;;;13.50;99.90;;;;;;4992918;28;20449;-88
2021/08/25 04:00:38;;;;;;;17.80;16.00;;;13.40;99.90;;;;;;4993027;28;20988;-88
2021/08/25 04:03:05;;;;;;;17.10;15.40;;;13.50;99.90;;;;;;4993064;28;20836;-88
2021/08/25 04:05:33;;;;;;;18.63;16.67;;;13.50;99.90;;;;;;4992749;28;20449;-88
2021/08/25 04:07:59;;;;;;;21.87;19.80;;;13.50;99.90;;;;;;4992905;28;20458;-89
2021/08/25 04:10:26;;;;;;;19.00;17.20;;;13.40;99.90;;;;;;4992650;28;20461;-88
2021/08/25 04:12:53;;;;;;;19.13;17.33;;;13.40;99.90;;;;;;4993013;28;20456;-88
2021/08/25 04:15:19;;;;;;;18.80;16.83;;;13.30;99.90;;;;;;4993098;28;20989;-88
2021/08/25 04:17:46;;;;;;;21.33;19.20;;;13.20;99.90;;;;;;4994206;28;20459;-88
2021/08/25 04:20:13;;;;;;;17.67;15.90;;;13.20;99.90;;;;;;5008668;28;20475;-88
2021/08/25 04:22:41;;;;;;;18.50;16.70;;;13.30;99.90;;;;;;5010329;28;20450;-88
2021/08/25 04:25:09;;;;;;;19.63;17.70;;;13.30;99.90;;;;;;4997832;28;20449;-88
2021/08/25 04:27:36;;;;;;;18.43;16.70;;;13.30;99.90;;;;;;5017525;28;20465;-87
2021/08/25 04:30:04;;;;;;;19.73;17.90;;;13.20;99.90;;;;;;5020516;28;20469;-88
2021/08/25 04:32:31;;;;;;;18.50;16.70;;;13.20;99.90;;;;;;5020232;28;20451;-88
2021/08/25 04:34:58;;;;;;;19.97;17.80;;;13.30;99.90;;;;;;5020868;28;20437;-87
2021/08/25 04:37:24;;;;;;;21.63;17.00;;;13.30;99.90;;;;;;5020839;28;20428;-88
2021/08/25 04:39:53;;;;;;;19.60;17.60;;;13.20;99.90;;;;;;5019094;28;20468;-92
2021/08/25 04:42:19;;;;;;;20.00;17.80;;;13.30;99.90;;;;;;5019925;28;20487;-88
2021/08/25 04:44:46;;;;;;;18.27;16.57;;;13.30;99.90;;;;;;5019760;28;20437;-91
2021/08/25 04:47:13;;;;;;;19.20;16.90;;;13.20;99.90;;;;;;5019434;28;20541;-89
2021/08/25 04:49:39;;;;;;;19.50;17.57;;;13.30;99.90;;;;;;5015742;28;20465;-90
2021/08/25 04:52:06;;;;;;;17.80;15.90;;;13.30;99.90;;;;;;5004081;28;20470;-88
2021/08/25 04:54:33;;;;;;;18.53;16.73;;;13.30;99.90;;;;;;5002671;28;20526;-89
2021/08/25 04:57:01;;;;;;;18.90;17.20;;;13.30;99.90;;;;;;4997628;28;20453;-88
2021/08/25 04:59:28;;;;;;;18.87;16.87;;;13.30;99.90;;;;;;4997775;28;20470;-90
2021/08/25 05:01:54;;;;;;;16.53;15.03;;;13.40;99.90;;;;;;4998151;28;20493;-89
2021/08/25 05:04:21;;;;;;;18.57;16.67;;;13.40;99.90;;;;;;4998178;28;20454;-89
2021/08/25 05:06:48;;;;;;;19.70;17.60;;;13.40;99.90;;;;;;4998858;28;20473;-89
2021/08/25 05:09:15;;;;;;;18.60;16.90;;;13.50;99.90;;;;;;5000846;28;20498;-89
2021/08/25 05:11:41;;;;;;;19.23;17.53;;;13.70;99.90;;;;;;4997306;28;20426;-89
2021/08/25 05:14:09;;;;;;;18.83;17.23;;;14.00;99.90;;;;;;4996542;28;20462;-87
2021/08/25 05:16:36;;;;;;;19.13;17.10;;;14.30;99.90;;;;;;4998759;28;20449;-88
2021/08/25 05:19:02;;;;;;;18.30;16.57;;;14.40;99.90;;;;;;4997970;28;20474;-88
2021/08/25 05:21:29;;;;;;;18.63;17.03;;;14.50;99.90;;;;;;5011014;28;20483;-89
2021/08/25 05:23:56;;;;;;;18.37;16.57;;;14.40;99.90;;;;;;5010393;28;21029;-89
2021/08/25 05:26:22;;;;;;;17.57;15.97;;;14.40;99.90;;;;;;4998089;28;20877;-89
2021/08/25 05:28:50;;;;;;;17.50;15.90;;;14.40;99.90;;;;;;4998012;28;20467;-90
2021/08/25 05:31:18;;;;;;;19.07;17.20;;;14.50;99.90;;;;;;5002809;28;20450;-90
2021/08/25 05:33:44;;;;;;;18.93;17.13;;;14.50;99.90;;;;;;5005084;28;20494;-87
2021/08/25 05:36:11;;;;;;;18.30;16.63;;;14.40;99.90;;;;;;4996674;28;20446;-87
2021/08/25 05:38:38;;;;;;;16.77;15.33;;;14.40;99.90;;;;;;4995977;28;20450;-88
2021/08/25 05:41:04;;;;;;;17.60;15.80;;;14.40;99.90;;;;;;4996200;28;20483;-88
2021/08/25 05:43:31;;;;;;;18.90;17.33;;;14.50;99.90;;;;;;4995830;28;20443;-88
2021/08/25 05:45:58;;;;;;;17.20;15.53;;;14.50;99.90;;;;;;4997097;28;20451;-88
2021/08/25 05:48:26;;;;;;;17.27;15.57;;;14.60;99.90;;;;;;4995374;28;20447;-90
2021/08/25 05:50:53;;;;;;;17.63;16.13;;;14.60;99.90;;;;;;4996207;28;20455;-90
2021/08/25 05:53:20;;;;;;;19.90;17.90;;;14.60;99.90;;;;;;4996099;28;20959;-88
2021/08/25 05:55:47;;;;;;;16.67;15.13;;;14.60;99.90;;;;;;4995430;28;20458;-87
2021/08/25 05:58:13;;;;;;;17.63;16.00;;;14.70;99.90;;;;;;4995949;28;20447;-88
2021/08/25 06:00:40;;;;;;;18.60;16.90;;;14.90;99.90;;;;;;4995426;28;21011;-86
2021/08/25 06:03:07;;;;;;;18.60;15.90;;;15.10;99.90;;;;;;4995568;28;20447;-92
2021/08/25 06:05:35;;;;;;;17.10;15.50;;;15.20;99.90;;;;;;4995468;28;20458;-88
2021/08/25 06:08:02;;;;;;;18.90;17.10;;;15.20;99.90;;;;;;4996771;28;20479;-89
2021/08/25 06:10:29;;;;;;;20.13;18.13;;;15.30;99.90;;;;;;4994988;28;20463;-86
2021/08/25 06:12:56;;;;;;;16.13;14.63;;;15.40;99.90;;;;;;4996736;28;20461;-88
2021/08/25 06:15:25;;;;;;;15.80;14.30;;;15.70;99.90;;;;;;4995147;28;20497;-88
2021/08/25 06:17:52;;;;;;;13.80;12.20;;;16.50;99.90;;;;;;5006136;28;20460;-90
2021/08/25 06:20:19;;;;;;;14.20;13.00;;;17.50;99.90;;;;;;5018570;28;20483;-87
2021/08/25 06:22:47;;;;;;;14.97;13.60;;;18.40;99.90;;;;;;5012887;28;20582;-88
2021/08/25 06:25:13;;;;;;;12.70;11.60;;;19.20;99.90;;;;;;4998543;28;20446;-90
2021/08/25 06:27:40;;;;;;;12.67;11.57;;;19.90;99.90;;;;;;4998500;28;20455;-90
2021/08/25 06:30:15;;;;;;;12.70;11.60;;;20.90;99.90;;;;;;4997097;28;20957;-89
2021/08/25 06:32:42;;;;;;;12.40;11.40;;;21.50;99.10;;;;;;5001298;28;20450;-89
2021/08/25 06:35:09;;;;;;;11.77;10.80;;;22.10;97.20;;;;;;4997819;28;20449;-90
2021/08/25 06:37:36;;;;;;;12.60;11.50;;;22.10;96.00;;;;;;5000573;28;20442;-89
2021/08/25 06:40:15;;;;;;;12.20;11.00;;;22.70;94.80;;;;;;5014719;28;20538;-90
2021/08/25 06:42:42;;;;;;;12.67;11.67;;;23.30;93.60;;;;;;5017768;28;20499;-88
2021/08/25 06:45:15;;;;;;;12.90;11.73;;;23.60;92.10;;;;;;5105347;22;20474;-88
2021/08/25 06:47:42;;;;;;;12.00;10.90;;;24.40;91.00;;;;;;5008252;28;20980;-87
2021/08/25 06:50:09;;;;;;;12.27;11.37;;;25.10;89.60;;;;;;5006135;28;20467;-89
2021/08/25 06:52:36;;;;;;;11.17;10.27;;;25.70;86.50;;;;;;4999604;28;20473;-89
2021/08/25 06:55:05;;;;;;;10.93;9.93;;;26.10;83.70;;;;;;5000351;28;20452;-89
2021/08/25 06:57:32;;;;;;;10.63;9.73;;;26.50;81.10;;;;;;4999611;28;20452;-89
2021/08/25 06:59:59;;;;;;;11.93;10.83;;;26.70;78.90;;;;;;5001859;28;20532;-89
2021/08/25 07:02:26;;;;;;;10.83;9.87;;;27.20;76.40;;;;;;4999702;28;20479;-89
2021/08/25 07:04:53;;;;;;;11.03;10.13;;;27.40;74.70;;;;;;4999131;28;20447;-89
2021/08/25 07:07:20;;;;;;;10.80;9.90;;;27.70;74.70;;;;;;4998932;28;20493;-89
2021/08/25 07:09:47;;;;;;;10.43;9.53;;;28.00;73.50;;;;;;4997408;28;20468;-89
2021/08/25 07:12:15;;;;;;;9.93;9.20;;;28.60;71.80;;;;;;4995332;28;20443;-89
2021/08/25 07:14:41;;;;;;;10.70;9.90;;;28.10;70.20;;;;;;4998596;28;20955;-90
2021/08/25 07:17:08;;;;;;;9.87;9.17;;;28.30;70.60;;;;;;4994918;28;20439;-89
2021/08/25 07:19:35;;;;;;;10.00;9.20;;;28.60;68.60;;;;;;4994172;28;20475;-89
2021/08/25 07:22:01;;;;;;;10.70;9.70;;;29.20;67.20;;;;;;4994384;28;20516;-90
2021/08/25 07:24:29;;;;;;;9.10;8.40;;;28.80;66.00;;;;;;4994391;28;20481;-89
2021/08/25 07:26:56;;;;;;;9.30;8.60;;;29.10;65.60;;;;;;5003545;28;20482;-89
2021/08/25 07:29:24;;;;;;;8.83;8.03;;;29.00;64.80;;;;;;4994186;28;20462;-89
2021/08/25 07:31:50;;;;;;;8.77;7.90;;;29.30;64.10;;;;;;4994507;28;21117;-89
2021/08/25 07:34:17;;;;;;;8.27;7.67;;;29.70;63.20;;;;;;4993684;28;20470;-90
2021/08/25 07:36:44;;;;;;;8.47;7.87;;;29.90;64.10;;;;;;4993714;28;20453;-87
2021/08/25 07:39:11;;;;;;;7.50;7.00;;;30.40;62.20;;;;;;4994551;28;20470;-87
2021/08/25 07:41:37;;;;;;;8.97;8.37;;;31.20;60.80;;;;;;4995301;28;20498;-87
2021/08/25 07:44:05;;;;;;;8.43;7.83;;;31.40;59.60;;;;;;4996818;28;20457;-87
2021/08/25 07:46:34;;;;;;;9.23;8.20;;;31.50;58.70;;;;;;5007546;28;20471;-86
2021/08/25 07:49:01;;;;;;;9.03;8.10;;;31.10;59.00;;;;;;5009634;28;20493;-87
2021/08/25 07:51:27;;;;;;;10.73;9.70;;;30.00;60.20;;;;;;5000373;28;20453;-87
2021/08/25 07:53:54;;;;;;;9.30;8.50;;;28.80;62.40;;;;;;5016240;28;20451;-86
2021/08/25 07:56:21;;;;;;;9.73;9.03;;;27.80;65.00;;;;;;5009411;28;20446;-87
2021/08/25 07:58:48;;;;;;;9.83;9.10;;;26.90;68.10;;;;;;4999079;28;20467;-89
2021/08/25 08:01:15;;;;;;;10.60;9.60;;;25.90;70.50;;;;;;4999044;28;20458;-89
2021/08/25 08:03:43;;;;;;;9.37;8.57;;;25.20;73.70;;;;;;4998058;28;20453;-89
2021/08/25 08:06:10;;;;;;;9.30;8.60;;;24.80;75.40;;;;;;4998338;28;20442;-89
2021/08/25 08:08:36;;;;;;;9.70;8.40;;;24.20;76.50;;;;;;5016347;28;20451;-88
2021/08/25 08:11:03;;;;;;;9.43;8.60;;;23.60;78.40;;;;;;5008208;28;20443;-89
2021/08/25 08:13:30;;;;;;;8.53;7.83;;;23.30;80.70;;;;;;4998773;28;20454;-88
2021/08/25 08:15:57;;;;;;;9.37;8.63;;;23.10;82.00;;;;;;5004207;28;20505;-88
2021/08/25 08:18:31;;;;;;;7.50;6.87;;;23.30;82.30;;;;;;5018630;28;20485;-90
2021/08/25 08:20:59;;;;;;;8.40;7.80;;;24.40;78.70;;;;;;5001185;28;20450;-89
2021/08/25 08:23:26;;;;;;;7.90;7.30;;;26.60;74.90;;;;;;4999238;28;20483;-89
2021/08/25 08:25:54;;;;;;;8.93;8.13;;;27.40;69.30;;;;;;5011618;28;20442;-89
2021/08/25 08:28:21;;;;;;;8.70;8.00;;;27.30;69.30;;;;;;5014723;28;20456;-89
2021/08/25 08:30:48;;;;;;;7.53;6.93;;;26.30;70.00;;;;;;5016368;28;20488;-87
2021/08/25 08:33:15;;;;;;;8.00;7.30;;;25.70;71.50;;;;;;5000892;28;20455;-89
2021/08/25 08:35:43;;;;;;;7.07;6.47;;;26.20;71.80;;;;;;5000188;28;20912;-89
2021/08/25 08:38:11;;;;;;;5.90;5.40;;;26.60;69.10;;;;;;4999236;28;20447;-89
2021/08/25 08:40:38;;;;;;;7.10;6.50;;;27.60;67.10;;;;;;5000242;28;20463;-90
2021/08/25 08:43:07;;;;;;;7.37;6.67;;;28.30;64.50;;;;;;4998125;28;20490;-89
2021/08/25 08:45:38;;;;;;;5.90;5.40;;;29.00;63.70;;;;;;4997849;28;20482;-87
2021/08/25 08:48:07;;;;;;;7.60;6.90;;;30.80;59.40;;;;;;4998661;28;21014;-89
2021/08/25 08:50:35;;;;;;;6.13;5.43;;;30.70;58.80;;;;;;4999068;28;20482;-87
2021/08/25 08:53:02;;;;;;;8.63;6.67;;;31.60;56.60;;;;;;4998917;28;20442;-87
2021/08/25 08:55:30;;;;;;;6.87;6.27;;;32.50;55.80;;;;;;4997650;28;20455;-89
2021/08/25 08:57:57;;;;;;;8.13;7.33;;;32.10;56.10;;;;;;4999829;28;20944;-89
2021/08/25 09:00:23;;;;;;;9.17;8.33;;;32.80;54.60;;;;;;4998143;28;20479;-89
2021/08/25 09:02:50;;;;;;;7.17;6.67;;;33.60;53.90;;;;;;4997262;28;20498;-90
2021/08/25 09:05:19;;;;;;;7.77;7.17;;;33.10;53.00;;;;;;4997513;28;20454;-89
2021/08/25 09:07:55;;;;;;;7.03;6.33;;;32.90;53.80;;;;;;4998373;28;20432;-88
2021/08/25 09:10:25;;;;;;;6.43;5.90;;;34.30;52.00;;;;;;5002806;28;20470;-89
2021/08/25 09:12:56;;;;;;;6.90;6.30;;;34.60;51.00;;;;;;5005181;28;20439;-90
2021/08/25 09:15:25;;;;;;;7.57;7.00;;;35.80;48.90;;;;;;5001650;28;20940;-89
2021/08/25 09:17:59;;;;;;;6.53;5.93;;;35.20;48.40;;;;;;5001453;28;20450;-89
2021/08/25 09:20:27;;;;;;;6.93;6.43;;;35.30;48.10;;;;;;5001026;28;20466;-89
2021/08/25 09:23:10;;;;;;;6.33;5.83;;;36.10;47.00;;;;;;5104254;22;20586;-90
2021/08/25 09:25:38;;;;;;;6.87;6.17;;;35.80;47.00;;;;;;5003585;28;20471;-88
2021/08/25 09:28:07;;;;;;;6.10;5.70;;;36.00;46.20;;;;;;5002211;28;20462;-90
2021/08/25 09:30:57;;;;;;;6.60;6.00;;;36.60;45.70;;;;;;5001675;28;20471;-89
2021/08/25 09:33:26;;;;;;;6.27;5.63;;;36.00;46.10;;;;;;4998832;28;20443;-89
2021/08/25 09:35:57;;;;;;;7.17;6.47;;;36.30;46.00;;;;;;5020810;22;20494;-84
2021/08/25 09:38:25;;;;;;;5.77;5.37;;;35.60;45.70;;;;;;5017984;28;20435;-85
2021/08/25 09:40:53;;;;;;;6.10;5.60;;;34.50;47.20;;;;;;5012018;28;20443;-85
2021/08/25 09:43:36;;;;;;;6.10;5.60;;;35.90;45.30;;;;;;5005730;28;20483;-86
2021/08/25 09:46:04;;;;;;;6.00;5.40;;;37.20;43.60;;;;;;5006900;28;20477;-87
2021/08/25 09:48:36;;;;;;;6.13;5.63;;;37.90;42.50;;;;;;5008971;28;20451;-85
2021/08/25 09:51:03;;;;;;;6.03;5.63;;;38.80;41.50;;;;;;5006380;28;20443;-86
2021/08/25 09:53:30;;;;;;;6.07;5.60;;;38.80;40.50;;;;;;5008555;28;20442;-86
2021/08/25 09:55:56;;;;;;;6.63;5.70;;;38.80;40.20;;;;;;5008737;28;20467;-87
2021/08/25 09:58:24;;;;;;;5.50;5.03;;;38.90;40.30;;;;;;5010715;28;20522;-85
2021/08/25 10:00:54;;;;;;;4.90;4.40;;;39.50;38.50;;;;;;5009769;28;20482;-86
2021/08/25 10:03:21;;;;;;;5.60;5.07;;;39.30;37.50;;;;;;5006529;28;20482;-86
2021/08/25 10:05:48;;;;;;;5.37;4.97;;;36.50;37.90;;;;;;5007475;28;20531;-86
2021/08/25 10:08:16;;;;;;;5.60;5.10;;;35.60;40.50;;;;;;5011242;28;20469;-87
2021/08/25 10:10:44;;;;;;;4.97;4.47;;;35.10;40.50;;;;;;5011434;28;20438;-85
2021/08/25 10:13:11;;;;;;;5.20;4.80;;;34.80;41.50;;;;;;5005714;28;20446;-86
2021/08/25 10:15:47;;;;;;;5.00;4.50;;;34.60;41.60;;;;;;5011769;28;20463;-84
2021/08/25 10:18:27;;;;;;;4.80;4.40;;;35.40;42.00;;;;;;5009783;28;20453;-90
2021/08/25 10:20:55;;;;;;;4.97;4.53;;;35.40;40.30;;;;;;5011875;28;20431;-86
2021/08/25 10:23:56;;;;;;;5.40;4.90;;;34.80;40.40;;;;;;5012655;28;20482;-87
2021/08/25 10:26:22;;;;;;;4.83;4.43;;;33.90;41.80;;;;;;5016276;28;20479;-86
2021/08/25 10:29:06;;;;;;;5.53;5.03;;;33.70;41.50;;;;;;5007935;28;20450;-87
2021/08/25 10:32:14;;;;;;;5.07;4.67;;;33.50;42.50;;;;;;5006662;28;20447;-86
2021/08/25 10:34:43;;;;;;;5.10;4.60;;;35.20;39.90;;;;;;5015035;28;20435;-83
2021/08/25 10:37:29;;;;;;;5.43;4.40;;;33.40;40.90;;;;;;5010670;28;20509;-87
2021/08/25 10:40:04;;;;;;;6.60;5.63;;;33.80;41.00;;;;;;5007663;28;20454;-86
2021/08/25 10:42:44;;;;;;;5.23;4.83;;;32.90;41.80;;;;;;5009132;28;20477;-86
2021/08/25 10:45:12;;;;;;;5.70;5.20;;;35.00;39.60;;;;;;5004995;28;20447;-86
2021/08/25 10:47:59;;;;;;;5.30;4.90;;;36.40;39.00;;;;;;5014988;28;20453;-88
2021/08/25 10:50:48;;;;;;;5.60;5.10;;;35.00;38.50;;;;;;5009238;28;20443;-87
2021/08/25 10:53:40;;;;;;;5.73;5.23;;;32.60;42.30;;;;;;5002506;28;20482;-86
2021/08/25 10:56:10;;;;;;;4.87;4.47;;;33.30;43.90;;;;;;5005287;28;20498;-87
2021/08/25 10:58:47;;;;;;;5.73;5.23;;;32.60;44.30;;;;;;5006641;28;20519;-87
2021/08/25 11:01:21;;;;;;;6.00;5.27;;;32.60;44.20;;;;;;5004662;28;20446;-86
2021/08/25 11:03:49;;;;;;;5.50;5.10;;;33.10;44.20;;;;;;5002825;28;20478;-87
2021/08/25 11:06:36;;;;;;;5.10;4.60;;;32.50;44.90;;;;;;5006803;28;20479;-87
2021/08/25 11:09:26;;;;;;;6.00;5.43;;;31.10;46.20;;;;;;4998768;28;20442;-87
2021/08/25 11:11:56;;;;;;;5.60;5.10;;;31.50;47.20;;;;;;5012280;28;20458;-87
2021/08/25 11:14:31;;;;;;;5.07;4.67;;;32.50;45.80;;;;;;5017838;28;20454;-84
2021/08/25 11:17:03;;;;;;;6.67;6.10;;;34.00;44.30;;;;;;5009925;28;20542;-87
2021/08/25 11:19:32;;;;;;;6.00;5.23;;;34.30;43.50;;;;;;5017063;28;20435;-84
2021/08/25 11:22:02;;;;;;;6.00;5.50;;;33.80;43.20;;;;;;5009972;28;20453;-87
2021/08/25 11:24:34;;;;;;;5.97;5.47;;;34.00;42.60;;;;;;5003091;28;20431;-87
2021/08/25 11:27:01;;;;;;;6.43;5.50;;;33.60;42.60;;;;;;5003740;28;20470;-87
2021/08/25 11:29:28;;;;;;;6.17;5.60;;;35.40;40.90;;;;;;5005592;28;20449;-86
2021/08/25 11:31:54;;;;;;;5.60;5.13;;;35.90;39.50;;;;;;5004973;28;20823;-86
2021/08/25 11:34:22;;;;;;;5.40;4.90;;;37.20;39.10;;;;;;5018510;28;20423;-85
2021/08/25 11:36:57;;;;;;;5.17;4.77;;;38.10;37.20;;;;;;5021914;28;20505;-86
2021/08/25 11:39:26;;;;;;;5.43;4.93;;;36.80;37.00;;;;;;5011391;28;20442;-88
2021/08/25 11:41:53;;;;;;;5.37;4.93;;;35.80;37.00;;;;;;5002895;28;20451;-86
2021/08/25 11:44:43;;;;;;;6.73;6.03;;;35.90;37.40;;;;;;5004921;28;20490;-86
2021/08/25 11:47:12;;;;;;;5.60;5.10;;;35.40;38.50;;;;;;5015330;28;20477;-86
2021/08/25 11:49:40;;;;;;;5.27;4.80;;;35.30;38.70;;;;;;5015333;28;20610;-86
2021/08/25 11:52:08;;;;;;;6.60;5.90;;;35.00;38.70;;;;;;5005896;28;20451;-86
2021/08/25 11:54:36;;;;;;;7.30;5.23;;;34.60;40.00;;;;;;5001926;28;20446;-86
2021/08/25 11:57:03;;;;;;;7.13;5.07;;;36.70;38.10;;;;;;5002525;28;20484;-86
2021/08/25 11:59:30;;;;;;;6.00;5.40;;;35.90;35.70;;;;;;5006584;28;20443;-86
2021/08/25 12:02:04;;;;;;;5.33;4.83;;;35.40;36.60;;;;;;5003703;28;20977;-86
2021/08/25 12:04:31;;;;;;;6.07;4.90;;;36.60;36.70;;;;;;5006420;28;20487;-86
2021/08/25 12:06:58;;;;;;;6.73;6.03;;;35.90;38.00;;;;;;5001510;28;20505;-87
2021/08/25 12:09:31;;;;;;;6.03;4.80;;;35.90;37.00;;;;;;4998178;28;20457;-85
2021/08/25 12:12:00;;;;;;;5.60;5.00;;;36.80;36.80;;;;;;4999001;28;20451;-86
2021/08/25 12:14:27;;;;;;;6.27;5.67;;;38.20;35.70;;;;;;5016850;28;20443;-84
2021/08/25 12:17:05;;;;;;;6.03;5.30;;;37.20;34.60;;;;;;5020016;28;20558;-85
2021/08/25 12:19:34;;;;;;;6.07;5.53;;;36.10;36.00;;;;;;5009930;28;20439;-86
2021/08/25 12:22:19;;;;;;;5.43;4.93;;;36.10;35.50;;;;;;5004326;28;20485;-87
2021/08/25 12:24:45;;;;;;;6.07;5.53;;;35.80;35.70;;;;;;5001603;28;20546;-86
2021/08/25 12:27:14;;;;;;;5.80;5.20;;;35.50;36.30;;;;;;5002151;28;20471;-86
2021/08/25 12:29:43;;;;;;;5.70;5.20;;;35.00;37.50;;;;;;5007380;28;20450;-88
2021/08/25 12:32:11;;;;;;;6.07;5.47;;;34.00;38.50;;;;;;5018034;28;20437;-87
2021/08/25 12:34:58;;;;;;;6.07;5.53;;;33.80;38.40;;;;;;5006848;28;20449;-86
2021/08/25 12:37:40;;;;;;;6.47;5.40;;;34.60;38.00;;;;;;5003138;28;20446;-85
2021/08/25 12:40:08;;;;;;;6.30;5.70;;;35.40;35.70;;;;;;5001829;28;20451;-87
2021/08/25 12:42:36;;;;;;;5.93;5.43;;;35.50;36.50;;;;;;4997860;28;20824;-86
2021/08/25 12:45:03;;;;;;;8.07;5.73;;;35.40;37.30;;;;;;5003194;28;20831;-86